sensor_id;sensor_type;location;lat;lon;timestamp;pressure;altitude;pressure_sealevel;temperature;humidity
32083;BME280;18597;48.328;7.932;2023-03-14T00:01:24;97994.72;;;10.39;100.00
32083;BME280;18597;48.328;7.932;2023-03-14T00:03:51;98000.88;;;10.47;100.00
32083;BME280;18597;48.328;7.932;2023-03-14T00:06:18;97990.38;;;10.46;100.00
32083;BME280;18597;48.328;7.932;2023-03-14T00:08:45;97988.16;;;10.49;100.00
32083;BME280;18597;48.328;7.932;2023-03-14T00:11:15;97970.31;;;10.50;100.00
32083;BME280;18597;48.328;7.932;2023-03-14T00:13:41;97971.81;;;10.61;100.00
32083;BME280;18597;48.328;7.932;2023-03-14T00:16:11;97989.47;;;10.70;100.00
32083;BME280;18597;48.328;7.932;2023-03-14T00:18:38;98007.81;;;10.65;100.00
32083;BME280;18597;48.328;7.932;2023-03-14T00:21:07;98008.16;;;10.70;100.00
32083;BME280;18597;48.328;7.932;2023-03-14T00:23:35;98019.34;;;10.65;100.00
32083;BME280;18597;48.328;7.932;2023-03-14T00:26:06;98023.22;;;10.54;100.00
32083;BME280;18597;48.328;7.932;2023-03-14T00:28:32;98030.88;;;10.66;100.00
32083;BME280;18597;48.328;7.932;2023-03-14T00:30:58;98021.47;;;10.78;100.00
32083;BME280;18597;48.328;7.932;2023-03-14T00:33:24;98029.53;;;10.62;100.00
32083;BME280;18597;48.328;7.932;2023-03-14T00:36:01;98039.03;;;10.64;100.00
32083;BME280;18597;48.328;7.932;2023-03-14T00:38:27;98038.53;;;10.69;100.00
32083;BME280;18597;48.328;7.932;2023-03-14T00:40:54;98044.06;;;10.67;100.00
32083;BME280;18597;48.328;7.932;2023-03-14T00:43:20;98050.44;;;10.58;100.00
32083;BME280;18597;48.328;7.932;2023-03-14T00:45:49;98049.09;;;10.46;100.00
32083;BME280;18597;48.328;7.932;2023-03-14T00:48:15;98053.44;;;10.39;100.00
32083;BME280;18597;48.328;7.932;2023-03-14T00:50:41;98056.13;;;10.31;100.00
32083;BME280;18597;48.328;7.932;2023-03-14T00:53:07;98051.75;;;10.13;100.00
32083;BME280;18597;48.328;7.932;2023-03-14T00:55:37;98030.41;;;10.13;100.00
32083;BME280;18597;48.328;7.932;2023-03-14T00:58:03;98022.25;;;10.15;100.00
32083;BME280;18597;48.328;7.932;2023-03-14T01:00:29;98002.03;;;10.12;100.00
32083;BME280;18597;48.328;7.932;2023-03-14T01:02:55;97997.69;;;10.19;100.00
32083;BME280;18597;48.328;7.932;2023-03-14T01:05:22;97999.38;;;10.04;100.00
32083;BME280;18597;48.328;7.932;2023-03-14T01:07:48;97986.56;;;10.08;100.00
32083;BME280;18597;48.328;7.932;2023-03-14T01:10:15;97989.38;;;9.90;100.00
32083;BME280;18597;48.328;7.932;2023-03-14T01:12:40;97985.03;;;9.97;100.00
32083;BME280;18597;48.328;7.932;2023-03-14T01:15:07;97971.84;;;10.12;100.00
32083;BME280;18597;48.328;7.932;2023-03-14T01:17:33;97975.22;;;9.97;100.00
32083;BME280;18597;48.328;7.932;2023-03-14T01:20:00;97970.56;;;9.91;100.00
32083;BME280;18597;48.328;7.932;2023-03-14T01:22:26;97977.22;;;9.95;100.00
32083;BME280;18597;48.328;7.932;2023-03-14T01:24:52;97968.72;;;9.92;100.00
32083;BME280;18597;48.328;7.932;2023-03-14T01:27:18;97990.06;;;9.67;100.00
32083;BME280;18597;48.328;7.932;2023-03-14T01:29:44;97976.72;;;9.76;100.00
32083;BME280;18597;48.328;7.932;2023-03-14T01:32:09;97975.03;;;9.66;100.00
32083;BME280;18597;48.328;7.932;2023-03-14T01:34:35;97978.53;;;9.67;100.00
32083;BME280;18597;48.328;7.932;2023-03-14T01:37:01;97965.38;;;9.65;100.00
32083;BME280;18597;48.328;7.932;2023-03-14T01:39:27;97965.38;;;9.49;100.00
32083;BME280;18597;48.328;7.932;2023-03-14T01:41:53;97967.38;;;9.55;100.00
32083;BME280;18597;48.328;7.932;2023-03-14T01:44:19;97971.06;;;9.54;100.00
32083;BME280;18597;48.328;7.932;2023-03-14T01:46:46;97973.38;;;9.49;100.00
32083;BME280;18597;48.328;7.932;2023-03-14T01:49:30;97966.66;;;9.37;100.00
32083;BME280;18597;48.328;7.932;2023-03-14T01:52:09;97962.69;;;9.49;100.00
32083;BME280;18597;48.328;7.932;2023-03-14T01:57:34;97957.06;;;9.60;100.00
32083;BME280;18597;48.328;7.932;2023-03-14T02:00:11;97942.56;;;9.47;100.00
32083;BME280;18597;48.328;7.932;2023-03-14T02:02:44;97964.03;;;9.45;100.00
32083;BME280;18597;48.328;7.932;2023-03-14T02:05:14;97956.38;;;9.42;100.00
32083;BME280;18597;48.328;7.932;2023-03-14T02:07:55;97951.03;;;9.66;100.00
32083;BME280;18597;48.328;7.932;2023-03-14T02:10:30;97950.72;;;9.61;100.00
32083;BME280;18597;48.328;7.932;2023-03-14T02:13:01;97946.72;;;9.65;100.00
32083;BME280;18597;48.328;7.932;2023-03-14T02:15:28;97936.56;;;9.69;100.00
32083;BME280;18597;48.328;7.932;2023-03-14T02:17:55;97941.38;;;9.57;100.00
32083;BME280;18597;48.328;7.932;2023-03-14T02:23:24;97924.72;;;9.71;100.00
32083;BME280;18597;48.328;7.932;2023-03-14T02:26:06;97943.03;;;9.50;100.00
32083;BME280;18597;48.328;7.932;2023-03-14T02:28:34;97921.88;;;9.57;100.00
32083;BME280;18597;48.328;7.932;2023-03-14T02:31:00;97921.72;;;9.58;100.00
32083;BME280;18597;48.328;7.932;2023-03-14T02:33:26;97926.38;;;9.72;100.00
32083;BME280;18597;48.328;7.932;2023-03-14T02:35:58;97935.91;;;9.83;100.00
32083;BME280;18597;48.328;7.932;2023-03-14T02:38:37;97928.38;;;9.95;100.00
32083;BME280;18597;48.328;7.932;2023-03-14T02:41:07;97921.88;;;9.97;100.00
32083;BME280;18597;48.328;7.932;2023-03-14T02:43:33;97905.72;;;9.91;100.00
32083;BME280;18597;48.328;7.932;2023-03-14T02:46:01;97893.06;;;9.85;100.00
32083;BME280;18597;48.328;7.932;2023-03-14T02:48:35;97884.53;;;9.81;100.00
32083;BME280;18597;48.328;7.932;2023-03-14T02:51:04;97889.56;;;9.76;100.00
32083;BME280;18597;48.328;7.932;2023-03-14T02:53:34;97883.88;;;9.87;100.00
32083;BME280;18597;48.328;7.932;2023-03-14T02:56:01;97877.50;;;9.96;100.00
32083;BME280;18597;48.328;7.932;2023-03-14T02:58:27;97874.69;;;9.90;100.00
32083;BME280;18597;48.328;7.932;2023-03-14T03:00:54;97861.34;;;9.90;100.00
32083;BME280;18597;48.328;7.932;2023-03-14T03:03:20;97848.38;;;9.87;100.00
32083;BME280;18597;48.328;7.932;2023-03-14T03:05:52;97842.56;;;9.67;100.00
32083;BME280;18597;48.328;7.932;2023-03-14T03:08:20;97833.00;;;9.97;100.00
32083;BME280;18597;48.328;7.932;2023-03-14T03:10:46;97833.84;;;10.06;100.00
32083;BME280;18597;48.328;7.932;2023-03-14T03:13:13;97831.34;;;9.96;100.00
32083;BME280;18597;48.328;7.932;2023-03-14T03:15:39;97824.84;;;9.98;100.00
32083;BME280;18597;48.328;7.932;2023-03-14T03:18:06;97823.88;;;9.91;100.00
32083;BME280;18597;48.328;7.932;2023-03-14T03:20:32;97826.63;;;10.14;100.00
32083;BME280;18597;48.328;7.932;2023-03-14T03:23:00;97820.00;;;10.02;100.00
32083;BME280;18597;48.328;7.932;2023-03-14T03:25:26;97822.56;;;10.35;100.00
32083;BME280;18597;48.328;7.932;2023-03-14T03:27:52;97831.28;;;10.20;100.00
32083;BME280;18597;48.328;7.932;2023-03-14T03:30:18;97822.97;;;10.07;100.00
32083;BME280;18597;48.328;7.932;2023-03-14T03:32:44;97819.91;;;10.18;100.00
32083;BME280;18597;48.328;7.932;2023-03-14T03:35:11;97825.25;;;10.18;100.00
32083;BME280;18597;48.328;7.932;2023-03-14T03:37:37;97816.97;;;10.13;100.00
32083;BME280;18597;48.328;7.932;2023-03-14T03:40:04;97808.69;;;9.92;100.00
32083;BME280;18597;48.328;7.932;2023-03-14T03:42:32;97817.84;;;9.89;100.00
32083;BME280;18597;48.328;7.932;2023-03-14T03:45:00;97798.50;;;9.95;100.00
32083;BME280;18597;48.328;7.932;2023-03-14T03:47:27;97800.69;;;9.92;100.00
32083;BME280;18597;48.328;7.932;2023-03-14T03:49:53;97789.47;;;10.05;100.00
32083;BME280;18597;48.328;7.932;2023-03-14T03:52:19;97780.38;;;9.91;100.00
32083;BME280;18597;48.328;7.932;2023-03-14T03:54:46;97779.72;;;9.72;100.00
32083;BME280;18597;48.328;7.932;2023-03-14T03:57:12;97802.41;;;9.68;100.00
32083;BME280;18597;48.328;7.932;2023-03-14T03:59:37;97794.56;;;9.83;100.00
32083;BME280;18597;48.328;7.932;2023-03-14T04:02:05;97787.00;;;9.95;100.00
32083;BME280;18597;48.328;7.932;2023-03-14T04:04:31;97783.00;;;9.99;100.00
32083;BME280;18597;48.328;7.932;2023-03-14T04:06:57;97791.97;;;10.06;100.00
32083;BME280;18597;48.328;7.932;2023-03-14T04:09:23;97781.84;;;9.93;100.00
32083;BME280;18597;48.328;7.932;2023-03-14T04:11:49;97781.34;;;9.98;100.00
32083;BME280;18597;48.328;7.932;2023-03-14T04:14:15;97781.69;;;9.87;100.00
32083;BME280;18597;48.328;7.932;2023-03-14T04:16:41;97769.38;;;9.86;100.00
32083;BME280;18597;48.328;7.932;2023-03-14T04:19:07;97754.22;;;9.78;100.00
32083;BME280;18597;48.328;7.932;2023-03-14T04:21:32;97769.31;;;10.02;100.00
32083;BME280;18597;48.328;7.932;2023-03-14T04:23:58;97753.06;;;10.12;100.00
32083;BME280;18597;48.328;7.932;2023-03-14T04:26:24;97756.75;;;10.11;100.00
32083;BME280;18597;48.328;7.932;2023-03-14T04:28:50;97738.31;;;10.01;100.00
32083;BME280;18597;48.328;7.932;2023-03-14T04:31:19;97753.69;;;9.91;100.00
32083;BME280;18597;48.328;7.932;2023-03-14T04:33:46;97742.38;;;9.81;100.00
32083;BME280;18597;48.328;7.932;2023-03-14T04:36:13;97744.72;;;9.84;100.00
32083;BME280;18597;48.328;7.932;2023-03-14T04:38:39;97739.53;;;9.82;100.00
32083;BME280;18597;48.328;7.932;2023-03-14T04:41:05;97738.00;;;9.88;100.00
32083;BME280;18597;48.328;7.932;2023-03-14T04:43:32;97738.06;;;9.71;100.00
32083;BME280;18597;48.328;7.932;2023-03-14T04:45:58;97745.44;;;9.69;100.00
32083;BME280;18597;48.328;7.932;2023-03-14T04:48:27;97741.81;;;9.54;100.00
32083;BME280;18597;48.328;7.932;2023-03-14T04:50:53;97734.66;;;9.47;100.00
32083;BME280;18597;48.328;7.932;2023-03-14T04:53:19;97712.47;;;9.54;100.00
32083;BME280;18597;48.328;7.932;2023-03-14T04:55:56;97719.66;;;9.54;100.00
32083;BME280;18597;48.328;7.932;2023-03-14T04:58:23;97702.50;;;9.48;100.00
32083;BME280;18597;48.328;7.932;2023-03-14T05:00:49;97710.13;;;9.59;100.00
32083;BME280;18597;48.328;7.932;2023-03-14T05:03:17;97703.47;;;9.55;100.00
32083;BME280;18597;48.328;7.932;2023-03-14T05:05:43;97701.31;;;9.51;100.00
32083;BME280;18597;48.328;7.932;2023-03-14T05:08:10;97685.94;;;9.69;100.00
32083;BME280;18597;48.328;7.932;2023-03-14T05:10:36;97703.94;;;9.67;100.00
32083;BME280;18597;48.328;7.932;2023-03-14T05:13:02;97696.75;;;9.76;100.00
32083;BME280;18597;48.328;7.932;2023-03-14T05:15:28;97694.88;;;9.84;100.00
32083;BME280;18597;48.328;7.932;2023-03-14T05:17:54;97699.28;;;10.00;100.00
32083;BME280;18597;48.328;7.932;2023-03-14T05:20:20;97686.34;;;9.89;100.00
32083;BME280;18597;48.328;7.932;2023-03-14T05:22:47;97705.81;;;9.97;100.00
32083;BME280;18597;48.328;7.932;2023-03-14T05:25:13;97696.41;;;10.10;100.00
32083;BME280;18597;48.328;7.932;2023-03-14T05:27:39;97689.88;;;10.12;100.00
32083;BME280;18597;48.328;7.932;2023-03-14T05:30:06;97701.03;;;10.24;100.00
32083;BME280;18597;48.328;7.932;2023-03-14T05:32:32;97688.81;;;10.30;100.00
32083;BME280;18597;48.328;7.932;2023-03-14T05:34:58;97692.00;;;10.25;100.00
32083;BME280;18597;48.328;7.932;2023-03-14T05:37:26;97698.53;;;10.22;100.00
32083;BME280;18597;48.328;7.932;2023-03-14T05:39:52;97696.41;;;10.41;100.00
32083;BME280;18597;48.328;7.932;2023-03-14T05:42:18;97696.84;;;10.52;100.00
32083;BME280;18597;48.328;7.932;2023-03-14T05:44:44;97695.88;;;10.68;99.73
32083;BME280;18597;48.328;7.932;2023-03-14T05:47:10;97697.84;;;10.74;99.04
32083;BME280;18597;48.328;7.932;2023-03-14T05:49:36;97690.06;;;10.65;100.00
32083;BME280;18597;48.328;7.932;2023-03-14T05:52:03;97699.13;;;10.78;96.38
32083;BME280;18597;48.328;7.932;2023-03-14T05:54:30;97702.44;;;10.80;98.81
32083;BME280;18597;48.328;7.932;2023-03-14T05:56:55;97695.69;;;10.70;99.26
32083;BME280;18597;48.328;7.932;2023-03-14T05:59:21;97691.13;;;10.78;98.46
32083;BME280;18597;48.328;7.932;2023-03-14T06:01:47;97701.66;;;10.95;96.22
32083;BME280;18597;48.328;7.932;2023-03-14T06:04:13;97701.72;;;10.87;99.04
32083;BME280;18597;48.328;7.932;2023-03-14T06:06:39;97696.94;;;10.82;98.95
32083;BME280;18597;48.328;7.932;2023-03-14T06:09:05;97675.78;;;10.95;94.23
32083;BME280;18597;48.328;7.932;2023-03-14T06:11:31;97700.13;;;11.00;94.40
32083;BME280;18597;48.328;7.932;2023-03-14T06:13:56;97698.78;;;11.19;89.81
32083;BME280;18597;48.328;7.932;2023-03-14T06:16:22;97697.78;;;11.20;90.80
32083;BME280;18597;48.328;7.932;2023-03-14T06:18:48;97705.69;;;11.14;93.61
32083;BME280;18597;48.328;7.932;2023-03-14T06:21:15;97691.59;;;11.20;93.29
32083;BME280;18597;48.328;7.932;2023-03-14T06:23:41;97701.81;;;11.16;92.81
32083;BME280;18597;48.328;7.932;2023-03-14T06:26:07;97694.16;;;11.13;95.77
32083;BME280;18597;48.328;7.932;2023-03-14T06:28:32;97690.38;;;11.22;91.91
32083;BME280;18597;48.328;7.932;2023-03-14T06:31:00;97676.56;;;11.33;87.51
32083;BME280;18597;48.328;7.932;2023-03-14T06:33:26;97677.41;;;11.34;88.64
32083;BME280;18597;48.328;7.932;2023-03-14T06:35:51;97671.59;;;11.30;89.56
32083;BME280;18597;48.328;7.932;2023-03-14T06:38:17;97678.59;;;11.31;89.11
32083;BME280;18597;48.328;7.932;2023-03-14T06:40:43;97683.22;;;11.37;91.39
32083;BME280;18597;48.328;7.932;2023-03-14T06:43:09;97678.59;;;11.46;86.38
32083;BME280;18597;48.328;7.932;2023-03-14T06:45:35;97686.34;;;11.56;88.41
32083;BME280;18597;48.328;7.932;2023-03-14T06:48:01;97672.91;;;11.64;87.90
32083;BME280;18597;48.328;7.932;2023-03-14T06:50:27;97686.81;;;11.89;85.80
32083;BME280;18597;48.328;7.932;2023-03-14T06:52:52;97686.53;;;11.99;84.79
32083;BME280;18597;48.328;7.932;2023-03-14T06:55:18;97675.81;;;11.99;80.39
32083;BME280;18597;48.328;7.932;2023-03-14T06:57:44;97674.06;;;12.06;84.04
32083;BME280;18597;48.328;7.932;2023-03-14T07:00:12;97668.66;;;12.20;80.77
32083;BME280;18597;48.328;7.932;2023-03-14T07:02:39;97668.16;;;12.32;80.91
32083;BME280;18597;48.328;7.932;2023-03-14T07:05:06;97666.22;;;12.40;78.95
32083;BME280;18597;48.328;7.932;2023-03-14T07:07:32;97660.44;;;12.22;78.51
32083;BME280;18597;48.328;7.932;2023-03-14T07:09:58;97652.16;;;12.17;78.86
32083;BME280;18597;48.328;7.932;2023-03-14T07:12:24;97669.91;;;12.39;77.99
32083;BME280;18597;48.328;7.932;2023-03-14T07:14:50;97655.91;;;13.15;72.32
32083;BME280;18597;48.328;7.932;2023-03-14T07:17:15;97657.31;;;13.32;70.89
32083;BME280;18597;48.328;7.932;2023-03-14T07:19:41;97667.75;;;13.55;69.25
32083;BME280;18597;48.328;7.932;2023-03-14T07:22:07;97665.00;;;13.76;67.50
32083;BME280;18597;48.328;7.932;2023-03-14T07:24:33;97671.34;;;14.16;63.96
32083;BME280;18597;48.328;7.932;2023-03-14T07:26:59;97662.53;;;15.68;57.43
32083;BME280;18597;48.328;7.932;2023-03-14T07:29:24;97671.03;;;16.55;52.29
32083;BME280;18597;48.328;7.932;2023-03-14T07:31:50;97667.41;;;17.31;51.39
32083;BME280;18597;48.328;7.932;2023-03-14T07:34:16;97668.06;;;18.06;48.46
32083;BME280;18597;48.328;7.932;2023-03-14T07:36:42;97676.94;;;18.73;45.91
32083;BME280;18597;48.328;7.932;2023-03-14T07:39:08;97677.75;;;17.09;49.25
32083;BME280;18597;48.328;7.932;2023-03-14T07:41:33;97679.19;;;16.03;51.63
32083;BME280;18597;48.328;7.932;2023-03-14T07:44:00;97686.81;;;15.29;54.87
32083;BME280;18597;48.328;7.932;2023-03-14T07:46:26;97682.25;;;15.09;58.25
32083;BME280;18597;48.328;7.932;2023-03-14T07:48:52;97683.91;;;15.17;60.56
32083;BME280;18597;48.328;7.932;2023-03-14T07:51:17;97678.94;;;15.01;56.76
32083;BME280;18597;48.328;7.932;2023-03-14T07:53:43;97682.66;;;15.33;57.02
32083;BME280;18597;48.328;7.932;2023-03-14T07:56:09;97691.31;;;15.54;57.15
32083;BME280;18597;48.328;7.932;2023-03-14T07:58:35;97678.47;;;15.63;55.68
32083;BME280;18597;48.328;7.932;2023-03-14T08:01:01;97686.75;;;15.68;55.75
32083;BME280;18597;48.328;7.932;2023-03-14T08:03:27;97695.84;;;15.61;56.26
32083;BME280;18597;48.328;7.932;2023-03-14T08:05:53;97694.06;;;15.15;57.15
32083;BME280;18597;48.328;7.932;2023-03-14T08:08:18;97700.88;;;14.97;58.30
32083;BME280;18597;48.328;7.932;2023-03-14T08:10:44;97697.56;;;14.82;58.87
32083;BME280;18597;48.328;7.932;2023-03-14T08:13:12;97712.03;;;15.08;59.20
32083;BME280;18597;48.328;7.932;2023-03-14T08:15:38;97698.19;;;15.04;59.07
32083;BME280;18597;48.328;7.932;2023-03-14T08:18:04;97710.16;;;14.21;60.47
32083;BME280;18597;48.328;7.932;2023-03-14T08:20:31;97709.50;;;14.73;60.71
32083;BME280;18597;48.328;7.932;2023-03-14T08:23:00;97706.88;;;14.93;60.51
32083;BME280;18597;48.328;7.932;2023-03-14T08:25:27;97713.69;;;14.82;58.74
32083;BME280;18597;48.328;7.932;2023-03-14T08:27:54;97715.72;;;14.60;63.61
32083;BME280;18597;48.328;7.932;2023-03-14T08:30:21;97716.09;;;14.51;61.55
32083;BME280;18597;48.328;7.932;2023-03-14T08:32:47;97703.75;;;14.76;60.69
32083;BME280;18597;48.328;7.932;2023-03-14T08:35:13;97696.25;;;14.58;61.00
32083;BME280;18597;48.328;7.932;2023-03-14T08:37:39;97709.06;;;14.56;61.04
32083;BME280;18597;48.328;7.932;2023-03-14T08:40:07;97698.19;;;14.16;63.52
32083;BME280;18597;48.328;7.932;2023-03-14T08:42:37;97731.13;;;13.97;63.74
32083;BME280;18597;48.328;7.932;2023-03-14T08:45:04;97725.03;;;14.16;63.25
32083;BME280;18597;48.328;7.932;2023-03-14T08:47:30;97737.03;;;14.68;63.79
32083;BME280;18597;48.328;7.932;2023-03-14T08:49:56;97737.28;;;15.13;59.87
32083;BME280;18597;48.328;7.932;2023-03-14T08:52:22;97736.06;;;15.42;59.93
32083;BME280;18597;48.328;7.932;2023-03-14T08:54:48;97728.72;;;16.02;56.83
32083;BME280;18597;48.328;7.932;2023-03-14T08:57:14;97724.81;;;15.85;57.09
32083;BME280;18597;48.328;7.932;2023-03-14T08:59:40;97747.41;;;15.77;58.52
32083;BME280;18597;48.328;7.932;2023-03-14T09:02:09;97736.00;;;15.89;57.70
32083;BME280;18597;48.328;7.932;2023-03-14T09:04:36;97731.84;;;15.93;57.84
32083;BME280;18597;48.328;7.932;2023-03-14T09:07:02;97756.31;;;15.85;57.02
32083;BME280;18597;48.328;7.932;2023-03-14T09:09:28;97744.53;;;16.37;56.07
32083;BME280;18597;48.328;7.932;2023-03-14T09:11:56;97738.78;;;16.78;53.09
32083;BME280;18597;48.328;7.932;2023-03-14T09:14:22;97747.56;;;16.92;53.18
32083;BME280;18597;48.328;7.932;2023-03-14T09:16:48;97740.19;;;17.37;51.33
32083;BME280;18597;48.328;7.932;2023-03-14T09:19:14;97760.94;;;17.12;51.72
32083;BME280;18597;48.328;7.932;2023-03-14T09:21:40;97744.44;;;17.27;52.27
32083;BME280;18597;48.328;7.932;2023-03-14T09:24:06;97740.91;;;17.26;51.03
32083;BME280;18597;48.328;7.932;2023-03-14T09:26:32;97744.97;;;17.35;51.54
32083;BME280;18597;48.328;7.932;2023-03-14T09:28:58;97745.81;;;17.11;51.36
32083;BME280;18597;48.328;7.932;2023-03-14T09:31:24;97745.22;;;17.09;52.35
32083;BME280;18597;48.328;7.932;2023-03-14T09:33:50;97749.22;;;16.55;53.22
32083;BME280;18597;48.328;7.932;2023-03-14T09:36:16;97767.97;;;16.36;54.23
32083;BME280;18597;48.328;7.932;2023-03-14T09:38:42;97763.75;;;15.89;55.66
32083;BME280;18597;48.328;7.932;2023-03-14T09:41:21;97759.63;;;15.60;56.81
32083;BME280;18597;48.328;7.932;2023-03-14T09:43:50;97771.63;;;15.24;59.72
32083;BME280;18597;48.328;7.932;2023-03-14T09:46:18;97781.53;;;15.11;59.05
32083;BME280;18597;48.328;7.932;2023-03-14T09:48:45;97753.34;;;14.67;60.83
32083;BME280;18597;48.328;7.932;2023-03-14T09:51:15;97775.16;;;14.44;62.22
32083;BME280;18597;48.328;7.932;2023-03-14T09:53:45;97782.53;;;14.29;66.65
32083;BME280;18597;48.328;7.932;2023-03-14T09:56:32;97776.19;;;14.02;70.70
32083;BME280;18597;48.328;7.932;2023-03-14T09:59:03;97779.25;;;13.92;73.01
32083;BME280;18597;48.328;7.932;2023-03-14T10:01:32;97775.94;;;13.62;74.61
32083;BME280;18597;48.328;7.932;2023-03-14T10:04:07;97786.72;;;13.69;76.33
32083;BME280;18597;48.328;7.932;2023-03-14T10:06:36;97789.06;;;13.50;74.71
32083;BME280;18597;48.328;7.932;2023-03-14T10:09:03;97792.16;;;13.82;77.48
32083;BME280;18597;48.328;7.932;2023-03-14T10:11:31;97784.41;;;13.94;74.78
32083;BME280;18597;48.328;7.932;2023-03-14T10:14:12;97799.06;;;13.98;73.09
32083;BME280;18597;48.328;7.932;2023-03-14T10:16:45;97804.28;;;13.99;73.71
32083;BME280;18597;48.328;7.932;2023-03-14T10:19:15;97805.16;;;13.78;78.10
32083;BME280;18597;48.328;7.932;2023-03-14T10:21:43;97808.09;;;13.55;80.21
32083;BME280;18597;48.328;7.932;2023-03-14T10:27:40;97812.56;;;13.48;82.15
32083;BME280;18597;48.328;7.932;2023-03-14T10:29:55;97811.78;;;13.54;85.92
32083;BME280;18597;48.328;7.932;2023-03-14T10:32:28;97827.44;;;13.51;86.43
32083;BME280;18597;48.328;7.932;2023-03-14T10:38:00;97831.91;;;13.44;86.62
32083;BME280;18597;48.328;7.932;2023-03-14T10:40:36;97838.44;;;13.35;89.16
32083;BME280;18597;48.328;7.932;2023-03-14T10:43:06;97840.44;;;13.26;91.20
32083;BME280;18597;48.328;7.932;2023-03-14T10:45:41;97841.38;;;13.40;90.96
32083;BME280;18597;48.328;7.932;2023-03-14T10:48:21;97847.69;;;13.53;91.57
32083;BME280;18597;48.328;7.932;2023-03-14T10:53:45;97843.28;;;13.46;90.55
32083;BME280;18597;48.328;7.932;2023-03-14T10:56:16;97857.41;;;13.33;91.44
32083;BME280;18597;48.328;7.932;2023-03-14T10:58:46;97869.03;;;13.40;93.43
32083;BME280;18597;48.328;7.932;2023-03-14T11:01:43;97894.06;;;13.47;91.49
32083;BME280;18597;48.328;7.932;2023-03-14T11:07:41;97923.44;;;12.54;100.00
32083;BME280;18597;48.328;7.932;2023-03-14T11:10:37;97940.13;;;12.11;100.00
32083;BME280;18597;48.328;7.932;2023-03-14T11:22:09;97991.88;;;10.88;100.00
32083;BME280;18597;48.328;7.932;2023-03-14T11:25:07;98014.44;;;10.85;100.00
32083;BME280;18597;48.328;7.932;2023-03-14T11:28:22;98017.84;;;11.10;100.00
32083;BME280;18597;48.328;7.932;2023-03-14T11:31:11;98040.06;;;11.10;100.00
32083;BME280;18597;48.328;7.932;2023-03-14T11:34:22;98050.69;;;10.79;100.00
32083;BME280;18597;48.328;7.932;2023-03-14T11:37:59;98056.44;;;10.52;100.00
32083;BME280;18597;48.328;7.932;2023-03-14T11:39:43;98075.47;;;10.24;100.00
32083;BME280;18597;48.328;7.932;2023-03-14T11:42:16;98091.47;;;10.41;100.00
32083;BME280;18597;48.328;7.932;2023-03-14T11:44:47;98105.97;;;10.63;100.00
32083;BME280;18597;48.328;7.932;2023-03-14T11:47:20;98112.22;;;11.10;100.00
32083;BME280;18597;48.328;7.932;2023-03-14T11:50:27;98117.97;;;11.78;100.00
32083;BME280;18597;48.328;7.932;2023-03-14T11:53:14;98118.91;;;12.39;100.00
32083;BME280;18597;48.328;7.932;2023-03-14T11:55:42;98147.19;;;12.64;100.00
32083;BME280;18597;48.328;7.932;2023-03-14T11:58:33;98157.91;;;12.64;100.00
32083;BME280;18597;48.328;7.932;2023-03-14T12:01:09;98174.13;;;12.48;100.00
32083;BME280;18597;48.328;7.932;2023-03-14T12:03:46;98181.47;;;12.69;100.00
32083;BME280;18597;48.328;7.932;2023-03-14T12:06:33;98194.19;;;12.90;100.00
32083;BME280;18597;48.328;7.932;2023-03-14T12:09:05;98212.84;;;12.83;94.93
32083;BME280;18597;48.328;7.932;2023-03-14T12:11:51;98218.97;;;12.69;86.49
32083;BME280;18597;48.328;7.932;2023-03-14T12:14:27;98228.84;;;12.45;74.50
32083;BME280;18597;48.328;7.932;2023-03-14T12:17:17;98242.44;;;12.67;84.53
32083;BME280;18597;48.328;7.932;2023-03-14T12:19:44;98252.97;;;12.68;71.36
32083;BME280;18597;48.328;7.932;2023-03-14T12:22:30;98257.59;;;12.52;65.32
32083;BME280;18597;48.328;7.932;2023-03-14T12:25:05;98267.19;;;12.69;69.73
32083;BME280;18597;48.328;7.932;2023-03-14T12:30:37;98281.75;;;12.97;62.54
32083;BME280;18597;48.328;7.932;2023-03-14T12:35:58;98298.19;;;11.93;66.35
32083;BME280;18597;48.328;7.932;2023-03-14T12:39:05;98292.56;;;11.72;69.95
32083;BME280;18597;48.328;7.932;2023-03-14T12:41:44;98304.75;;;11.74;68.74
32083;BME280;18597;48.328;7.932;2023-03-14T12:50:13;98322.72;;;12.52;60.93
32083;BME280;18597;48.328;7.932;2023-03-14T12:58:39;98341.72;;;11.62;58.98
32083;BME280;18597;48.328;7.932;2023-03-14T13:01:17;98354.28;;;11.29;60.40
32083;BME280;18597;48.328;7.932;2023-03-14T13:03:51;98348.59;;;11.49;61.31
32083;BME280;18597;48.328;7.932;2023-03-14T13:12:14;98375.50;;;11.39;59.31
32083;BME280;18597;48.328;7.932;2023-03-14T13:14:47;98395.22;;;11.30;59.34
32083;BME280;18597;48.328;7.932;2023-03-14T13:17:19;98397.88;;;11.30;55.42
32083;BME280;18597;48.328;7.932;2023-03-14T13:19:55;98394.91;;;11.65;55.41
32083;BME280;18597;48.328;7.932;2023-03-14T13:22:28;98402.66;;;12.24;56.51
32083;BME280;18597;48.328;7.932;2023-03-14T13:25:11;98403.16;;;12.36;51.08
32083;BME280;18597;48.328;7.932;2023-03-14T13:27:37;98406.50;;;12.30;51.93
32083;BME280;18597;48.328;7.932;2023-03-14T13:30:24;98428.47;;;12.25;50.57
32083;BME280;18597;48.328;7.932;2023-03-14T13:32:52;98423.00;;;11.94;51.10
32083;BME280;18597;48.328;7.932;2023-03-14T13:35:27;98450.22;;;11.49;51.92
32083;BME280;18597;48.328;7.932;2023-03-14T13:37:58;98453.03;;;11.39;51.46
32083;BME280;18597;48.328;7.932;2023-03-14T13:40:32;98442.66;;;11.11;50.81
32083;BME280;18597;48.328;7.932;2023-03-14T13:43:06;98464.56;;;11.31;51.53
32083;BME280;18597;48.328;7.932;2023-03-14T13:45:50;98465.28;;;11.58;52.54
32083;BME280;18597;48.328;7.932;2023-03-14T13:48:17;98481.16;;;11.51;50.52
32083;BME280;18597;48.328;7.932;2023-03-14T13:50:50;98490.00;;;11.52;50.51
32083;BME280;18597;48.328;7.932;2023-03-14T13:53:16;98484.19;;;11.56;50.59
32083;BME280;18597;48.328;7.932;2023-03-14T13:55:42;98490.84;;;11.68;49.98
32083;BME280;18597;48.328;7.932;2023-03-14T13:58:20;98493.75;;;11.83;50.62
32083;BME280;18597;48.328;7.932;2023-03-14T14:01:00;98495.09;;;11.96;50.00